sensor_id;sensor_type;location;lat;lon;timestamp;temperature;humidity
8338;DHT22;4206;48.634;9.516;2022-08-03T00:01:01;17.80;99.90
8338;DHT22;4206;48.634;9.516;2022-08-03T00:03:27;17.80;99.90
8338;DHT22;4206;48.634;9.516;2022-08-03T00:05:53;17.80;99.90
8338;DHT22;4206;48.634;9.516;2022-08-03T00:08:19;17.80;99.90
8338;DHT22;4206;48.634;9.516;2022-08-03T00:10:44;17.70;99.90
8338;DHT22;4206;48.634;9.516;2022-08-03T00:13:10;17.70;99.90
8338;DHT22;4206;48.634;9.516;2022-08-03T00:15:39;17.70;99.90
8338;DHT22;4206;48.634;9.516;2022-08-03T00:18:05;17.70;99.90
8338;DHT22;4206;48.634;9.516;2022-08-03T00:20:30;17.60;99.90
8338;DHT22;4206;48.634;9.516;2022-08-03T00:22:56;17.50;99.90
8338;DHT22;4206;48.634;9.516;2022-08-03T00:25:22;17.50;99.90
8338;DHT22;4206;48.634;9.516;2022-08-03T00:27:47;17.40;99.90
8338;DHT22;4206;48.634;9.516;2022-08-03T00:30:13;17.40;99.90
8338;DHT22;4206;48.634;9.516;2022-08-03T00:32:39;17.40;99.90
8338;DHT22;4206;48.634;9.516;2022-08-03T00:35:05;17.40;99.90
8338;DHT22;4206;48.634;9.516;2022-08-03T00:37:31;17.30;99.90
8338;DHT22;4206;48.634;9.516;2022-08-03T00:39:57;17.30;99.90
8338;DHT22;4206;48.634;9.516;2022-08-03T00:42:22;17.30;99.90
8338;DHT22;4206;48.634;9.516;2022-08-03T00:44:48;17.40;99.90
8338;DHT22;4206;48.634;9.516;2022-08-03T00:47:13;17.30;99.90
8338;DHT22;4206;48.634;9.516;2022-08-03T00:49:40;17.20;99.90
8338;DHT22;4206;48.634;9.516;2022-08-03T00:52:08;17.20;99.90
8338;DHT22;4206;48.634;9.516;2022-08-03T00:54:36;17.20;99.90
8338;DHT22;4206;48.634;9.516;2022-08-03T00:57:02;17.20;99.90
8338;DHT22;4206;48.634;9.516;2022-08-03T00:59:29;17.10;99.90
8338;DHT22;4206;48.634;9.516;2022-08-03T01:01:55;17.10;99.90
8338;DHT22;4206;48.634;9.516;2022-08-03T01:04:21;17.10;99.90
8338;DHT22;4206;48.634;9.516;2022-08-03T01:15:14;17.00;99.90
8338;DHT22;4206;48.634;9.516;2022-08-03T01:17:48;17.00;99.90
8338;DHT22;4206;48.634;9.516;2022-08-03T01:20:17;16.90;99.90
8338;DHT22;4206;48.634;9.516;2022-08-03T01:30:41;16.90;99.90
8338;DHT22;4206;48.634;9.516;2022-08-03T01:33:16;16.90;99.90
8338;DHT22;4206;48.634;9.516;2022-08-03T01:35:47;16.90;99.90
8338;DHT22;4206;48.634;9.516;2022-08-03T01:38:26;16.80;99.90
8338;DHT22;4206;48.634;9.516;2022-08-03T01:40:53;16.80;99.90
8338;DHT22;4206;48.634;9.516;2022-08-03T01:43:25;16.70;99.90
8338;DHT22;4206;48.634;9.516;2022-08-03T01:45:53;16.70;99.90
8338;DHT22;4206;48.634;9.516;2022-08-03T01:48:20;16.60;99.90
8338;DHT22;4206;48.634;9.516;2022-08-03T01:50:47;16.50;99.90
8338;DHT22;4206;48.634;9.516;2022-08-03T01:53:14;16.50;99.90
8338;DHT22;4206;48.634;9.516;2022-08-03T01:55:44;16.50;99.90
8338;DHT22;4206;48.634;9.516;2022-08-03T01:58:10;16.50;99.90
8338;DHT22;4206;48.634;9.516;2022-08-03T02:00:39;16.50;99.90
8338;DHT22;4206;48.634;9.516;2022-08-03T02:03:06;16.50;99.90
8338;DHT22;4206;48.634;9.516;2022-08-03T02:05:33;16.50;99.90
8338;DHT22;4206;48.634;9.516;2022-08-03T02:08:01;16.50;99.90
8338;DHT22;4206;48.634;9.516;2022-08-03T02:10:28;16.40;99.90
8338;DHT22;4206;48.634;9.516;2022-08-03T02:12:58;16.40;99.90
8338;DHT22;4206;48.634;9.516;2022-08-03T02:15:26;16.40;99.90
8338;DHT22;4206;48.634;9.516;2022-08-03T02:17:53;16.40;99.90
8338;DHT22;4206;48.634;9.516;2022-08-03T02:20:20;16.30;99.90
8338;DHT22;4206;48.634;9.516;2022-08-03T02:22:46;16.30;99.90
8338;DHT22;4206;48.634;9.516;2022-08-03T02:25:14;16.20;99.90
8338;DHT22;4206;48.634;9.516;2022-08-03T02:27:45;16.20;99.90
8338;DHT22;4206;48.634;9.516;2022-08-03T02:30:12;16.20;99.90
8338;DHT22;4206;48.634;9.516;2022-08-03T02:32:41;16.20;99.90
8338;DHT22;4206;48.634;9.516;2022-08-03T02:35:10;16.20;99.90
8338;DHT22;4206;48.634;9.516;2022-08-03T02:37:45;16.10;99.90
8338;DHT22;4206;48.634;9.516;2022-08-03T02:40:12;16.20;99.90
8338;DHT22;4206;48.634;9.516;2022-08-03T02:42:40;16.20;99.90
8338;DHT22;4206;48.634;9.516;2022-08-03T02:45:10;16.10;99.90
8338;DHT22;4206;48.634;9.516;2022-08-03T02:47:40;16.10;99.90
8338;DHT22;4206;48.634;9.516;2022-08-03T02:50:09;16.10;99.90
8338;DHT22;4206;48.634;9.516;2022-08-03T02:52:36;16.00;99.90
8338;DHT22;4206;48.634;9.516;2022-08-03T02:57:30;16.00;99.90
8338;DHT22;4206;48.634;9.516;2022-08-03T02:59:58;16.00;99.90
8338;DHT22;4206;48.634;9.516;2022-08-03T03:02:25;16.00;99.90
8338;DHT22;4206;48.634;9.516;2022-08-03T03:04:52;15.90;99.90
8338;DHT22;4206;48.634;9.516;2022-08-03T03:07:20;15.90;99.90
8338;DHT22;4206;48.634;9.516;2022-08-03T03:09:46;15.90;99.90
8338;DHT22;4206;48.634;9.516;2022-08-03T03:12:13;16.00;99.90
8338;DHT22;4206;48.634;9.516;2022-08-03T03:14:39;15.90;99.90
8338;DHT22;4206;48.634;9.516;2022-08-03T03:17:07;15.90;99.90
8338;DHT22;4206;48.634;9.516;2022-08-03T03:19:34;15.90;99.90
8338;DHT22;4206;48.634;9.516;2022-08-03T03:22:01;15.90;99.90
8338;DHT22;4206;48.634;9.516;2022-08-03T03:24:28;15.90;99.90
8338;DHT22;4206;48.634;9.516;2022-08-03T03:26:54;15.90;99.90
8338;DHT22;4206;48.634;9.516;2022-08-03T03:29:21;15.90;99.90
8338;DHT22;4206;48.634;9.516;2022-08-03T03:31:47;15.90;99.90
8338;DHT22;4206;48.634;9.516;2022-08-03T03:34:13;15.90;99.90
8338;DHT22;4206;48.634;9.516;2022-08-03T03:36:39;15.90;99.90
8338;DHT22;4206;48.634;9.516;2022-08-03T03:39:05;15.90;99.90
8338;DHT22;4206;48.634;9.516;2022-08-03T03:41:30;15.80;99.90
8338;DHT22;4206;48.634;9.516;2022-08-03T03:43:56;15.80;99.90
8338;DHT22;4206;48.634;9.516;2022-08-03T03:46:22;15.80;99.90
8338;DHT22;4206;48.634;9.516;2022-08-03T03:48:48;15.80;99.90
8338;DHT22;4206;48.634;9.516;2022-08-03T03:51:14;15.70;99.90
8338;DHT22;4206;48.634;9.516;2022-08-03T03:53:40;15.80;99.90
8338;DHT22;4206;48.634;9.516;2022-08-03T03:56:06;15.70;99.90
8338;DHT22;4206;48.634;9.516;2022-08-03T03:58:32;15.70;99.90
8338;DHT22;4206;48.634;9.516;2022-08-03T04:00:58;15.70;99.90
8338;DHT22;4206;48.634;9.516;2022-08-03T04:03:24;15.60;99.90
8338;DHT22;4206;48.634;9.516;2022-08-03T04:05:50;15.60;99.90
8338;DHT22;4206;48.634;9.516;2022-08-03T04:08:31;15.60;99.90
8338;DHT22;4206;48.634;9.516;2022-08-03T04:11:29;15.60;99.90
8338;DHT22;4206;48.634;9.516;2022-08-03T04:14:12;15.60;99.90
8338;DHT22;4206;48.634;9.516;2022-08-03T04:16:46;15.60;99.90
8338;DHT22;4206;48.634;9.516;2022-08-03T04:19:18;15.60;99.90
8338;DHT22;4206;48.634;9.516;2022-08-03T04:21:47;15.70;99.90
8338;DHT22;4206;48.634;9.516;2022-08-03T04:24:15;15.70;99.90
8338;DHT22;4206;48.634;9.516;2022-08-03T04:26:43;15.60;99.90
8338;DHT22;4206;48.634;9.516;2022-08-03T04:29:10;15.70;99.90
8338;DHT22;4206;48.634;9.516;2022-08-03T04:31:39;15.80;99.90
8338;DHT22;4206;48.634;9.516;2022-08-03T04:34:05;15.60;99.90
8338;DHT22;4206;48.634;9.516;2022-08-03T04:36:32;15.70;99.90
8338;DHT22;4206;48.634;9.516;2022-08-03T04:39:02;15.80;99.90
8338;DHT22;4206;48.634;9.516;2022-08-03T04:41:29;15.90;99.90
8338;DHT22;4206;48.634;9.516;2022-08-03T04:43:58;15.80;99.90
8338;DHT22;4206;48.634;9.516;2022-08-03T04:46:28;15.80;99.90
8338;DHT22;4206;48.634;9.516;2022-08-03T04:48:56;15.80;99.90
8338;DHT22;4206;48.634;9.516;2022-08-03T04:51:22;15.90;99.90
8338;DHT22;4206;48.634;9.516;2022-08-03T04:53:49;15.90;99.90
8338;DHT22;4206;48.634;9.516;2022-08-03T04:56:14;15.90;99.90
8338;DHT22;4206;48.634;9.516;2022-08-03T04:58:40;16.10;99.90
8338;DHT22;4206;48.634;9.516;2022-08-03T05:01:06;16.20;99.90
8338;DHT22;4206;48.634;9.516;2022-08-03T05:03:32;16.30;99.90
8338;DHT22;4206;48.634;9.516;2022-08-03T05:05:57;16.40;99.90
8338;DHT22;4206;48.634;9.516;2022-08-03T05:08:23;16.50;99.90
8338;DHT22;4206;48.634;9.516;2022-08-03T05:10:49;16.70;99.90
8338;DHT22;4206;48.634;9.516;2022-08-03T05:13:14;16.80;99.90
8338;DHT22;4206;48.634;9.516;2022-08-03T05:15:40;16.90;99.90
8338;DHT22;4206;48.634;9.516;2022-08-03T05:18:06;17.10;99.90
8338;DHT22;4206;48.634;9.516;2022-08-03T05:20:32;17.20;99.90
8338;DHT22;4206;48.634;9.516;2022-08-03T05:22:58;17.30;99.90
8338;DHT22;4206;48.634;9.516;2022-08-03T05:25:26;17.40;99.90
8338;DHT22;4206;48.634;9.516;2022-08-03T05:27:52;17.50;99.90
8338;DHT22;4206;48.634;9.516;2022-08-03T05:30:18;17.60;99.90
8338;DHT22;4206;48.634;9.516;2022-08-03T05:32:43;17.70;99.90
8338;DHT22;4206;48.634;9.516;2022-08-03T05:35:09;17.80;99.90
8338;DHT22;4206;48.634;9.516;2022-08-03T05:37:35;18.00;99.90
8338;DHT22;4206;48.634;9.516;2022-08-03T05:40:01;18.20;99.90
8338;DHT22;4206;48.634;9.516;2022-08-03T05:42:26;18.30;99.90
8338;DHT22;4206;48.634;9.516;2022-08-03T05:44:52;18.40;99.90
8338;DHT22;4206;48.634;9.516;2022-08-03T05:47:18;18.50;99.90
8338;DHT22;4206;48.634;9.516;2022-08-03T05:49:43;18.60;99.90
8338;DHT22;4206;48.634;9.516;2022-08-03T05:52:09;18.70;99.90
8338;DHT22;4206;48.634;9.516;2022-08-03T05:54:35;18.70;99.90
8338;DHT22;4206;48.634;9.516;2022-08-03T05:57:00;18.80;99.90
8338;DHT22;4206;48.634;9.516;2022-08-03T05:59:26;19.00;99.90
8338;DHT22;4206;48.634;9.516;2022-08-03T06:01:52;19.10;99.90
8338;DHT22;4206;48.634;9.516;2022-08-03T06:04:18;19.10;99.90
8338;DHT22;4206;48.634;9.516;2022-08-03T06:06:44;19.30;99.90
8338;DHT22;4206;48.634;9.516;2022-08-03T06:09:09;19.60;99.90
8338;DHT22;4206;48.634;9.516;2022-08-03T06:11:36;19.50;99.90
8338;DHT22;4206;48.634;9.516;2022-08-03T06:14:02;19.50;99.90
8338;DHT22;4206;48.634;9.516;2022-08-03T06:16:28;19.80;99.90
8338;DHT22;4206;48.634;9.516;2022-08-03T06:18:54;19.80;99.90
8338;DHT22;4206;48.634;9.516;2022-08-03T06:21:19;19.90;99.90
8338;DHT22;4206;48.634;9.516;2022-08-03T06:23:45;20.20;99.90
8338;DHT22;4206;48.634;9.516;2022-08-03T06:26:12;20.40;99.90
8338;DHT22;4206;48.634;9.516;2022-08-03T06:28:38;20.60;99.90
8338;DHT22;4206;48.634;9.516;2022-08-03T06:31:04;20.80;99.90
8338;DHT22;4206;48.634;9.516;2022-08-03T06:33:29;20.80;99.90
8338;DHT22;4206;48.634;9.516;2022-08-03T06:35:55;20.90;99.90
8338;DHT22;4206;48.634;9.516;2022-08-03T06:40:47;21.10;99.90
8338;DHT22;4206;48.634;9.516;2022-08-03T06:43:13;21.30;99.90
8338;DHT22;4206;48.634;9.516;2022-08-03T06:57:53;21.90;99.90
8338;DHT22;4206;48.634;9.516;2022-08-03T07:00:19;22.20;99.90
8338;DHT22;4206;48.634;9.516;2022-08-03T07:02:45;22.40;99.90
8338;DHT22;4206;48.634;9.516;2022-08-03T07:05:11;22.60;99.90
8338;DHT22;4206;48.634;9.516;2022-08-03T07:07:37;22.80;99.90
8338;DHT22;4206;48.634;9.516;2022-08-03T07:10:05;22.90;99.90
8338;DHT22;4206;48.634;9.516;2022-08-03T07:12:31;23.00;99.90
8338;DHT22;4206;48.634;9.516;2022-08-03T07:14:59;23.20;99.90
8338;DHT22;4206;48.634;9.516;2022-08-03T07:17:25;23.20;99.90
8338;DHT22;4206;48.634;9.516;2022-08-03T07:24:43;23.70;99.90
8338;DHT22;4206;48.634;9.516;2022-08-03T07:27:09;23.90;99.90
8338;DHT22;4206;48.634;9.516;2022-08-03T07:29:35;24.10;99.90
8338;DHT22;4206;48.634;9.516;2022-08-03T07:32:02;24.30;99.90
8338;DHT22;4206;48.634;9.516;2022-08-03T07:34:28;24.50;99.90
8338;DHT22;4206;48.634;9.516;2022-08-03T07:36:54;24.70;99.90
8338;DHT22;4206;48.634;9.516;2022-08-03T07:39:20;24.90;99.90
8338;DHT22;4206;48.634;9.516;2022-08-03T07:41:46;25.00;99.90
8338;DHT22;4206;48.634;9.516;2022-08-03T07:44:12;25.10;99.90
8338;DHT22;4206;48.634;9.516;2022-08-03T07:46:38;25.30;99.90
8338;DHT22;4206;48.634;9.516;2022-08-03T07:49:04;25.30;99.90
8338;DHT22;4206;48.634;9.516;2022-08-03T07:51:29;25.40;99.90
8338;DHT22;4206;48.634;9.516;2022-08-03T07:53:55;25.70;99.90
8338;DHT22;4206;48.634;9.516;2022-08-03T07:56:22;26.10;99.90
8338;DHT22;4206;48.634;9.516;2022-08-03T07:58:50;26.50;99.90
8338;DHT22;4206;48.634;9.516;2022-08-03T08:01:16;26.90;99.90
8338;DHT22;4206;48.634;9.516;2022-08-03T08:03:45;27.40;99.90
8338;DHT22;4206;48.634;9.516;2022-08-03T08:06:11;28.10;99.90
8338;DHT22;4206;48.634;9.516;2022-08-03T08:08:37;28.50;99.90
8338;DHT22;4206;48.634;9.516;2022-08-03T08:11:03;28.70;99.90
8338;DHT22;4206;48.634;9.516;2022-08-03T08:13:29;29.00;99.90
8338;DHT22;4206;48.634;9.516;2022-08-03T08:15:55;29.30;99.90
8338;DHT22;4206;48.634;9.516;2022-08-03T08:18:20;29.40;99.90
8338;DHT22;4206;48.634;9.516;2022-08-03T08:20:46;29.50;99.90
8338;DHT22;4206;48.634;9.516;2022-08-03T08:23:12;29.80;99.90
8338;DHT22;4206;48.634;9.516;2022-08-03T08:25:37;29.80;99.90
8338;DHT22;4206;48.634;9.516;2022-08-03T08:28:03;30.10;99.90
8338;DHT22;4206;48.634;9.516;2022-08-03T08:30:31;30.30;99.90
8338;DHT22;4206;48.634;9.516;2022-08-03T08:32:57;30.50;99.90
8338;DHT22;4206;48.634;9.516;2022-08-03T08:35:22;31.10;99.90
8338;DHT22;4206;48.634;9.516;2022-08-03T08:37:48;31.60;99.90
8338;DHT22;4206;48.634;9.516;2022-08-03T08:40:14;32.10;99.90
8338;DHT22;4206;48.634;9.516;2022-08-03T08:42:41;32.60;99.90
8338;DHT22;4206;48.634;9.516;2022-08-03T08:45:08;33.40;99.90
8338;DHT22;4206;48.634;9.516;2022-08-03T08:47:38;33.60;99.90
8338;DHT22;4206;48.634;9.516;2022-08-03T08:50:04;33.60;99.90
8338;DHT22;4206;48.634;9.516;2022-08-03T08:52:33;34.60;99.90
8338;DHT22;4206;48.634;9.516;2022-08-03T08:55:02;35.90;99.90
8338;DHT22;4206;48.634;9.516;2022-08-03T08:57:32;36.60;99.90
8338;DHT22;4206;48.634;9.516;2022-08-03T09:02:29;36.80;99.90
8338;DHT22;4206;48.634;9.516;2022-08-03T09:04:56;37.70;99.90
8338;DHT22;4206;48.634;9.516;2022-08-03T09:07:22;37.90;98.90
8338;DHT22;4206;48.634;9.516;2022-08-03T09:09:48;38.20;98.30
8338;DHT22;4206;48.634;9.516;2022-08-03T09:12:14;38.40;97.60
8338;DHT22;4206;48.634;9.516;2022-08-03T09:14:40;37.70;97.90
8338;DHT22;4206;48.634;9.516;2022-08-03T09:17:05;37.60;97.00
8338;DHT22;4206;48.634;9.516;2022-08-03T09:19:32;38.80;95.10
8338;DHT22;4206;48.634;9.516;2022-08-03T09:22:14;39.30;95.60
8338;DHT22;4206;48.634;9.516;2022-08-03T09:24:57;40.40;90.60
8338;DHT22;4206;48.634;9.516;2022-08-03T09:27:23;40.10;90.50
8338;DHT22;4206;48.634;9.516;2022-08-03T09:29:53;40.60;91.50
8338;DHT22;4206;48.634;9.516;2022-08-03T09:32:20;41.50;89.20
8338;DHT22;4206;48.634;9.516;2022-08-03T09:34:49;40.70;88.30
8338;DHT22;4206;48.634;9.516;2022-08-03T09:37:16;41.90;87.90
8338;DHT22;4206;48.634;9.516;2022-08-03T09:39:42;42.20;79.70
8338;DHT22;4206;48.634;9.516;2022-08-03T09:42:18;42.70;79.70
8338;DHT22;4206;48.634;9.516;2022-08-03T09:44:45;42.80;78.00
8338;DHT22;4206;48.634;9.516;2022-08-03T09:47:13;42.00;75.80
8338;DHT22;4206;48.634;9.516;2022-08-03T09:49:41;41.90;72.00
8338;DHT22;4206;48.634;9.516;2022-08-03T09:52:16;42.10;73.30
8338;DHT22;4206;48.634;9.516;2022-08-03T09:54:43;41.30;74.20
8338;DHT22;4206;48.634;9.516;2022-08-03T09:57:25;41.40;74.40
8338;DHT22;4206;48.634;9.516;2022-08-03T09:59:53;43.30;68.90
8338;DHT22;4206;48.634;9.516;2022-08-03T10:02:25;44.30;67.60
8338;DHT22;4206;48.634;9.516;2022-08-03T10:04:52;44.80;62.90
8338;DHT22;4206;48.634;9.516;2022-08-03T10:07:21;44.30;65.90
8338;DHT22;4206;48.634;9.516;2022-08-03T10:09:56;44.10;66.00
8338;DHT22;4206;48.634;9.516;2022-08-03T10:12:23;43.10;63.00
8338;DHT22;4206;48.634;9.516;2022-08-03T10:14:49;43.20;66.90
8338;DHT22;4206;48.634;9.516;2022-08-03T10:17:15;44.30;60.10
8338;DHT22;4206;48.634;9.516;2022-08-03T10:19:41;43.20;63.10
8338;DHT22;4206;48.634;9.516;2022-08-03T10:24:38;42.80;60.10
8338;DHT22;4206;48.634;9.516;2022-08-03T10:27:06;42.00;61.80
8338;DHT22;4206;48.634;9.516;2022-08-03T10:29:38;42.60;63.00
8338;DHT22;4206;48.634;9.516;2022-08-03T10:32:09;42.80;64.70
8338;DHT22;4206;48.634;9.516;2022-08-03T10:34:39;43.20;60.60
8338;DHT22;4206;48.634;9.516;2022-08-03T10:37:09;43.80;59.40
8338;DHT22;4206;48.634;9.516;2022-08-03T10:39:36;43.70;57.20
8338;DHT22;4206;48.634;9.516;2022-08-03T10:42:02;44.10;57.60
8338;DHT22;4206;48.634;9.516;2022-08-03T10:44:32;42.60;59.60
8338;DHT22;4206;48.634;9.516;2022-08-03T10:47:02;42.80;60.40
8338;DHT22;4206;48.634;9.516;2022-08-03T10:49:29;43.50;59.60
8338;DHT22;4206;48.634;9.516;2022-08-03T10:51:55;44.20;57.10
8338;DHT22;4206;48.634;9.516;2022-08-03T10:54:37;44.90;56.30
8338;DHT22;4206;48.634;9.516;2022-08-03T10:57:46;45.50;56.20
8338;DHT22;4206;48.634;9.516;2022-08-03T11:00:17;43.90;56.40
8338;DHT22;4206;48.634;9.516;2022-08-03T11:03:00;43.40;55.70
8338;DHT22;4206;48.634;9.516;2022-08-03T11:05:28;43.30;55.40
8338;DHT22;4206;48.634;9.516;2022-08-03T11:10:42;43.90;54.90
8338;DHT22;4206;48.634;9.516;2022-08-03T11:13:08;43.50;56.90
8338;DHT22;4206;48.634;9.516;2022-08-03T11:15:36;43.00;56.40
8338;DHT22;4206;48.634;9.516;2022-08-03T11:18:07;42.40;56.90
8338;DHT22;4206;48.634;9.516;2022-08-03T11:23:18;41.50;59.00
8338;DHT22;4206;48.634;9.516;2022-08-03T11:26:07;41.80;58.40
8338;DHT22;4206;48.634;9.516;2022-08-03T11:28:33;42.30;57.30
8338;DHT22;4206;48.634;9.516;2022-08-03T11:34:08;43.90;56.70
8338;DHT22;4206;48.634;9.516;2022-08-03T11:39:39;44.60;53.00
8338;DHT22;4206;48.634;9.516;2022-08-03T11:44:49;45.50;49.00
8338;DHT22;4206;48.634;9.516;2022-08-03T11:47:16;43.50;53.00
8338;DHT22;4206;48.634;9.516;2022-08-03T11:49:45;42.90;53.70
8338;DHT22;4206;48.634;9.516;2022-08-03T11:52:11;42.60;55.80
8338;DHT22;4206;48.634;9.516;2022-08-03T11:54:38;43.20;52.80
8338;DHT22;4206;48.634;9.516;2022-08-03T11:57:04;44.00;53.60
8338;DHT22;4206;48.634;9.516;2022-08-03T11:59:32;44.90;49.60
8338;DHT22;4206;48.634;9.516;2022-08-03T12:02:13;44.20;49.80
8338;DHT22;4206;48.634;9.516;2022-08-03T12:04:57;43.40;52.70
8338;DHT22;4206;48.634;9.516;2022-08-03T12:07:25;43.20;52.80
8338;DHT22;4206;48.634;9.516;2022-08-03T12:12:34;43.10;53.40
8338;DHT22;4206;48.634;9.516;2022-08-03T12:15:00;44.20;52.20
8338;DHT22;4206;48.634;9.516;2022-08-03T12:17:35;45.20;49.80
8338;DHT22;4206;48.634;9.516;2022-08-03T12:20:02;44.30;53.00
8338;DHT22;4206;48.634;9.516;2022-08-03T12:22:44;43.50;51.10
8338;DHT22;4206;48.634;9.516;2022-08-03T12:25:20;43.40;52.50
8338;DHT22;4206;48.634;9.516;2022-08-03T12:27:47;44.20;50.70
8338;DHT22;4206;48.634;9.516;2022-08-03T12:30:12;44.80;48.90
8338;DHT22;4206;48.634;9.516;2022-08-03T12:32:38;43.70;51.10
8338;DHT22;4206;48.634;9.516;2022-08-03T12:35:04;43.20;52.90
8338;DHT22;4206;48.634;9.516;2022-08-03T12:37:30;43.30;52.20
8338;DHT22;4206;48.634;9.516;2022-08-03T12:39:58;43.60;50.90
8338;DHT22;4206;48.634;9.516;2022-08-03T12:42:30;44.70;50.20
8338;DHT22;4206;48.634;9.516;2022-08-03T12:44:56;45.20;48.30
8338;DHT22;4206;48.634;9.516;2022-08-03T12:47:22;46.20;47.00
8338;DHT22;4206;48.634;9.516;2022-08-03T12:49:49;45.40;48.30
8338;DHT22;4206;48.634;9.516;2022-08-03T12:52:17;44.90;48.20
8338;DHT22;4206;48.634;9.516;2022-08-03T12:54:53;45.90;47.00
8338;DHT22;4206;48.634;9.516;2022-08-03T12:57:19;45.20;47.50
8338;DHT22;4206;48.634;9.516;2022-08-03T12:59:45;44.30;50.50
8338;DHT22;4206;48.634;9.516;2022-08-03T13:02:19;43.70;58.80
8338;DHT22;4206;48.634;9.516;2022-08-03T13:04:46;43.60;68.50
8338;DHT22;4206;48.634;9.516;2022-08-03T13:07:15;43.30;68.40
8338;DHT22;4206;48.634;9.516;2022-08-03T13:12:13;43.80;67.40
8338;DHT22;4206;48.634;9.516;2022-08-03T13:14:40;44.00;68.60
8338;DHT22;4206;48.634;9.516;2022-08-03T13:17:07;43.60;70.10
8338;DHT22;4206;48.634;9.516;2022-08-03T13:19:34;44.30;69.10
8338;DHT22;4206;48.634;9.516;2022-08-03T13:22:09;45.20;66.80
8338;DHT22;4206;48.634;9.516;2022-08-03T13:24:35;45.40;66.30
8338;DHT22;4206;48.634;9.516;2022-08-03T13:27:01;45.40;65.50
8338;DHT22;4206;48.634;9.516;2022-08-03T13:29:29;45.80;66.10
8338;DHT22;4206;48.634;9.516;2022-08-03T13:31:55;45.40;67.40
8338;DHT22;4206;48.634;9.516;2022-08-03T13:34:20;45.10;66.50
8338;DHT22;4206;48.634;9.516;2022-08-03T13:36:46;45.60;66.30
8338;DHT22;4206;48.634;9.516;2022-08-03T13:39:12;45.40;66.30
8338;DHT22;4206;48.634;9.516;2022-08-03T13:41:37;44.10;68.10
8338;DHT22;4206;48.634;9.516;2022-08-03T13:44:03;43.40;68.20
8338;DHT22;4206;48.634;9.516;2022-08-03T13:46:29;43.60;69.20
8338;DHT22;4206;48.634;9.516;2022-08-03T13:48:54;44.60;66.70
8338;DHT22;4206;48.634;9.516;2022-08-03T13:51:20;44.50;68.00
8338;DHT22;4206;48.634;9.516;2022-08-03T13:53:46;44.70;67.70
8338;DHT22;4206;48.634;9.516;2022-08-03T13:56:11;44.90;68.50
8338;DHT22;4206;48.634;9.516;2022-08-03T13:58:37;43.70;69.50
8338;DHT22;4206;48.634;9.516;2022-08-03T14:01:03;42.80;72.50
8338;DHT22;4206;48.634;9.516;2022-08-03T14:03:28;41.90;71.40
8338;DHT22;4206;48.634;9.516;2022-08-03T14:05:54;40.90;74.00
8338;DHT22;4206;48.634;9.516;2022-08-03T14:08:20;40.70;74.60
8338;DHT22;4206;48.634;9.516;2022-08-03T14:10:45;40.60;74.80
8338;DHT22;4206;48.634;9.516;2022-08-03T14:13:12;40.90;74.50
8338;DHT22;4206;48.634;9.516;2022-08-03T14:15:39;41.30;74.60
8338;DHT22;4206;48.634;9.516;2022-08-03T14:18:07;41.00;75.00
8338;DHT22;4206;48.634;9.516;2022-08-03T14:20:33;40.10;78.30
8338;DHT22;4206;48.634;9.516;2022-08-03T14:22:59;39.40;79.30
8338;DHT22;4206;48.634;9.516;2022-08-03T14:25:25;39.40;80.00
8338;DHT22;4206;48.634;9.516;2022-08-03T14:27:50;39.00;71.30
8338;DHT22;4206;48.634;9.516;2022-08-03T14:30:16;38.10;71.10
8338;DHT22;4206;48.634;9.516;2022-08-03T14:32:42;37.80;70.70
8338;DHT22;4206;48.634;9.516;2022-08-03T14:35:08;37.50;73.30
8338;DHT22;4206;48.634;9.516;2022-08-03T14:37:34;37.40;73.60
8338;DHT22;4206;48.634;9.516;2022-08-03T14:40:00;37.40;70.00
8338;DHT22;4206;48.634;9.516;2022-08-03T14:42:26;36.90;69.90
8338;DHT22;4206;48.634;9.516;2022-08-03T14:44:51;36.80;73.10
8338;DHT22;4206;48.634;9.516;2022-08-03T14:47:17;36.80;73.60
8338;DHT22;4206;48.634;9.516;2022-08-03T14:52:09;36.20;57.50
8338;DHT22;4206;48.634;9.516;2022-08-03T14:54:35;36.00;59.50
8338;DHT22;4206;48.634;9.516;2022-08-03T14:57:00;35.80;64.80
8338;DHT22;4206;48.634;9.516;2022-08-03T14:59:26;35.50;54.90
8338;DHT22;4206;48.634;9.516;2022-08-03T15:01:52;35.20;53.60
8338;DHT22;4206;48.634;9.516;2022-08-03T15:04:18;34.80;55.60
8338;DHT22;4206;48.634;9.516;2022-08-03T15:06:44;34.70;55.10
8338;DHT22;4206;48.634;9.516;2022-08-03T15:09:09;34.60;55.60
8338;DHT22;4206;48.634;9.516;2022-08-03T15:11:35;34.30;55.60
8338;DHT22;4206;48.634;9.516;2022-08-03T15:14:01;34.20;56.70
8338;DHT22;4206;48.634;9.516;2022-08-03T15:16:27;34.10;58.70
8338;DHT22;4206;48.634;9.516;2022-08-03T15:18:53;34.00;58.30
8338;DHT22;4206;48.634;9.516;2022-08-03T15:21:18;34.00;58.60
8338;DHT22;4206;48.634;9.516;2022-08-03T15:23:44;34.00;59.00
8338;DHT22;4206;48.634;9.516;2022-08-03T15:26:10;34.20;58.10
8338;DHT22;4206;48.634;9.516;2022-08-03T15:28:35;34.00;58.80
8338;DHT22;4206;48.634;9.516;2022-08-03T15:31:01;34.10;59.50
8338;DHT22;4206;48.634;9.516;2022-08-03T15:33:27;34.10;59.80
8338;DHT22;4206;48.634;9.516;2022-08-03T15:35:53;34.10;58.10
8338;DHT22;4206;48.634;9.516;2022-08-03T15:38:20;34.00;58.80
8338;DHT22;4206;48.634;9.516;2022-08-03T15:40:48;34.00;58.60
8338;DHT22;4206;48.634;9.516;2022-08-03T15:43:13;33.90;58.50
8338;DHT22;4206;48.634;9.516;2022-08-03T15:45:39;33.90;56.80
8338;DHT22;4206;48.634;9.516;2022-08-03T15:48:05;33.70;58.40
8338;DHT22;4206;48.634;9.516;2022-08-03T15:50:31;33.60;58.70
8338;DHT22;4206;48.634;9.516;2022-08-03T15:52:57;33.50;59.20
8338;DHT22;4206;48.634;9.516;2022-08-03T15:55:23;33.50;58.00
8338;DHT22;4206;48.634;9.516;2022-08-03T15:57:48;33.40;59.00
8338;DHT22;4206;48.634;9.516;2022-08-03T16:00:14;33.40;59.40
8338;DHT22;4206;48.634;9.516;2022-08-03T16:02:40;33.40;59.10
8338;DHT22;4206;48.634;9.516;2022-08-03T16:05:06;33.40;60.60
8338;DHT22;4206;48.634;9.516;2022-08-03T16:07:32;33.40;58.10
8338;DHT22;4206;48.634;9.516;2022-08-03T16:10:15;33.30;59.00
8338;DHT22;4206;48.634;9.516;2022-08-03T16:12:42;33.20;57.70
8338;DHT22;4206;48.634;9.516;2022-08-03T16:15:09;33.20;59.30
8338;DHT22;4206;48.634;9.516;2022-08-03T16:17:36;33.20;58.10
8338;DHT22;4206;48.634;9.516;2022-08-03T16:20:03;33.10;59.30
8338;DHT22;4206;48.634;9.516;2022-08-03T16:22:29;33.00;59.40
8338;DHT22;4206;48.634;9.516;2022-08-03T16:24:54;32.90;59.30
8338;DHT22;4206;48.634;9.516;2022-08-03T16:27:21;33.00;58.80
8338;DHT22;4206;48.634;9.516;2022-08-03T16:29:46;33.00;59.40
8338;DHT22;4206;48.634;9.516;2022-08-03T16:32:13;32.90;60.40
8338;DHT22;4206;48.634;9.516;2022-08-03T16:34:40;32.80;59.70
8338;DHT22;4206;48.634;9.516;2022-08-03T16:37:07;32.80;60.50
8338;DHT22;4206;48.634;9.516;2022-08-03T16:39:33;32.80;59.20
8338;DHT22;4206;48.634;9.516;2022-08-03T16:41:59;32.80;59.50
8338;DHT22;4206;48.634;9.516;2022-08-03T16:44:25;32.80;57.80
8338;DHT22;4206;48.634;9.516;2022-08-03T16:46:51;32.70;58.90
8338;DHT22;4206;48.634;9.516;2022-08-03T16:49:17;32.70;59.00
8338;DHT22;4206;48.634;9.516;2022-08-03T16:51:43;32.60;58.30
8338;DHT22;4206;48.634;9.516;2022-08-03T16:54:09;32.50;59.40
8338;DHT22;4206;48.634;9.516;2022-08-03T16:56:35;32.40;60.30
8338;DHT22;4206;48.634;9.516;2022-08-03T16:59:02;32.40;59.50
8338;DHT22;4206;48.634;9.516;2022-08-03T17:01:28;32.40;59.00
8338;DHT22;4206;48.634;9.516;2022-08-03T17:03:57;32.40;59.10
8338;DHT22;4206;48.634;9.516;2022-08-03T17:06:24;32.40;59.90
8338;DHT22;4206;48.634;9.516;2022-08-03T17:08:51;32.30;59.80